<?xml version='1.0' encoding='UTF-8'?>
<gpx xmlns="http://www.topografix.com/GPX/1/1" creator="www.balnam.be" version="1.1" xmlns:xsi="http://www.w3.org/2001/XMLSchema-instance" xsi:schemaLocation="http://www.topografix.com/GPX/1/1 http://www.topografix.com/GPX/1/1/gpx.xsd">
<trk>
<name>hbcrq33</name>
<cmt>v</cmt>
<desc>Ronquières Sentier n°33 Charly des Bois</desc>
<link href="https://chemins.be/ronquieres/sentier/33"/><trkseg>
<trkpt lat="50.610540" lon="4.221305"><time>2026-05-03T06:43:40Z</time></trkpt>
<trkpt lat="50.610666" lon="4.221106"><time>2026-05-03T06:53:40Z</time></trkpt>
<trkpt lat="50.611205" lon="4.220540"><time>2026-05-03T07:03:40Z</time></trkpt>
<trkpt lat="50.611241" lon="4.220511"><time>2026-05-03T07:13:40Z</time></trkpt>
<trkpt lat="50.611690" lon="4.220015"><time>2026-05-03T07:23:40Z</time></trkpt>
<trkpt lat="50.611752" lon="4.219945"><time>2026-05-03T07:33:40Z</time></trkpt>
<trkpt lat="50.612309" lon="4.219335"><time>2026-05-03T07:43:40Z</time></trkpt>
<trkpt lat="50.612937" lon="4.218697"><time>2026-05-03T07:53:40Z</time></trkpt>
<trkpt lat="50.613063" lon="4.218556"><time>2026-05-03T08:03:40Z</time></trkpt>
<trkpt lat="50.613431" lon="4.218159"><time>2026-05-03T08:13:40Z</time></trkpt>
<trkpt lat="50.613449" lon="4.218145"><time>2026-05-03T08:23:40Z</time></trkpt>
<trkpt lat="50.613458" lon="4.218145"><time>2026-05-03T08:33:40Z</time></trkpt>
<trkpt lat="50.613485" lon="4.218102"><time>2026-05-03T08:43:40Z</time></trkpt>
<trkpt lat="50.613593" lon="4.217975"><time>2026-05-03T08:53:40Z</time></trkpt>
<trkpt lat="50.614230" lon="4.216885"><time>2026-05-03T09:03:40Z</time></trkpt>
<trkpt lat="50.614292" lon="4.216772"><time>2026-05-03T09:13:40Z</time></trkpt>
<trkpt lat="50.614328" lon="4.216687"><time>2026-05-03T09:23:40Z</time></trkpt>
<trkpt lat="50.614499" lon="4.216644"><time>2026-05-03T09:33:40Z</time></trkpt>
<trkpt lat="50.614471" lon="4.216107"><time>2026-05-03T09:43:40Z</time></trkpt>
<trkpt lat="50.614750" lon="4.215739"><time>2026-05-03T09:53:40Z</time></trkpt>
<trkpt lat="50.615261" lon="4.215115"><time>2026-05-03T10:03:40Z</time></trkpt>
<trkpt lat="50.616222" lon="4.214222"><time>2026-05-03T10:13:40Z</time></trkpt>
<trkpt lat="50.616518" lon="4.213896"><time>2026-05-03T10:23:40Z</time></trkpt>
<trkpt lat="50.616905" lon="4.213782"><time>2026-05-03T10:33:40Z</time></trkpt>
</trkseg></trk>
<trk>
<name>hbcrq33</name>
<cmt>r</cmt>
<desc>Ronquières Sentier n°33 Charly des Bois</desc>
<link href="https://chemins.be/ronquieres/sentier/33"/><trkseg>
<trkpt lat="50.616905" lon="4.213782"><time>2026-05-03T10:33:40Z</time></trkpt>
<trkpt lat="50.617354" lon="4.213794"><time>2026-05-03T10:43:40Z</time></trkpt>
<trkpt lat="50.617678" lon="4.213864"><time>2026-05-03T10:53:40Z</time></trkpt>
</trkseg></trk>
<trk>
<name>hbcrq33</name>
<cmt>q</cmt>
<desc>Ronquières Sentier n°33 Charly des Bois</desc>
<link href="https://chemins.be/ronquieres/sentier/33"/><trkseg>
<trkpt lat="50.617678" lon="4.213864"><time>2026-05-03T10:53:40Z</time></trkpt>
<trkpt lat="50.617705" lon="4.213708"><time>2026-05-03T11:03:40Z</time></trkpt>
<trkpt lat="50.619008" lon="4.213506"><time>2026-05-03T11:13:40Z</time></trkpt>
<trkpt lat="50.619906" lon="4.212797"><time>2026-05-03T11:23:40Z</time></trkpt>
<trkpt lat="50.621431" lon="4.210022"><time>2026-05-03T11:33:40Z</time></trkpt>
<trkpt lat="50.621889" lon="4.210091"><time>2026-05-03T11:43:40Z</time></trkpt>
<trkpt lat="50.622725" lon="4.209792"><time>2026-05-03T11:53:40Z</time></trkpt>
<trkpt lat="50.623220" lon="4.210200"><time>2026-05-03T12:03:40Z</time></trkpt>
<trkpt lat="50.624567" lon="4.209432"><time>2026-05-03T12:13:40Z</time></trkpt>
</trkseg>
</trk>
</gpx>